Stove Pipe Wells, California
Current Conditions -  °F | °C
As of 1:56 AM on Monday 26 Jan 2015 (Local Time) from KNID Reporting Station
Clear Clear  
Wind Chill: 42°   Ceiling: Unl
Heat Index: 46°   Visibility: 10mi
Dew Point: 33°   Wind: 7mph
Humidity: 61%   Direction: 200°SSW
Pressure: 30.13"   Gusts: NA
Location:  36.3785°N, 117.161°W
Report Text: KNID 260956Z AUTO 20006KT 10SM CLR 08/01 A3013 RMK AO2 SLP198 T00780006 $
Loading
Personal Weather Stations






























Interactive Weather Map New forecast layout! Learn more

10-Day Weather Forecast

Advertisements
Track Severe Weather on mobile